Time;durP1;ratioP1;P1;durP2;ratioP2;P2;SDS_P1;SDS_P2;PMS_P1;PMS_P2;Temp;Humidity;BMP_temperature;BMP_pressure;BME280_temperature;BME280_humidity;BME280_pressure;Samples;Min_cycle;Max_cycle;Signal;HPM_P1;HPM_P2
2022/07/25 00:00:49;;;;;;;2.10;1.45;;;;;;;14.75;64.15;100798.86;1795473;79;21043;-77
2022/07/25 00:03:16;;;;;;;2.37;1.85;;;;;;;14.72;64.25;100785.36;1795431;79;22065;-77
2022/07/25 00:05:43;;;;;;;2.67;1.70;;;;;;;14.69;64.30;100791.25;1785465;78;21128;-77
2022/07/25 00:08:11;;;;;;;4.00;1.77;;;;;;;14.64;64.43;100787.50;1783836;79;20988;-77
2022/07/25 00:10:38;;;;;;;3.25;1.60;;;;;;;14.64;64.48;100784.86;1795425;79;21509;-77
2022/07/25 00:13:05;;;;;;;2.70;1.77;;;;;;;14.61;64.53;100783.70;1778381;78;21001;-77
2022/07/25 00:15:32;;;;;;;3.15;1.80;;;;;;;14.58;64.63;100786.48;1732207;81;21032;-77
2022/07/25 00:18:00;;;;;;;1.85;1.40;;;;;;;14.53;64.55;100777.93;1778793;78;21240;-77
2022/07/25 00:20:27;;;;;;;2.15;1.60;;;;;;;14.48;64.49;100777.25;1795698;79;21043;-77
2022/07/25 00:22:54;;;;;;;2.58;1.45;;;;;;;14.45;64.58;100780.89;1795740;79;21386;-77
2022/07/25 00:25:21;;;;;;;1.55;1.32;;;;;;;14.40;64.57;100772.33;1773470;78;21028;-77
2022/07/25 00:27:48;;;;;;;2.10;1.42;;;;;;;14.39;64.65;100779.02;1795812;79;21098;-77
2022/07/25 00:30:15;;;;;;;2.37;1.40;;;;;;;14.35;64.64;100771.69;1795751;78;21105;-77
2022/07/25 00:32:42;;;;;;;1.85;1.37;;;;;;;14.30;64.66;100769.75;1773370;78;20995;-77
2022/07/25 00:35:09;;;;;;;2.10;1.35;;;;;;;14.25;64.82;100763.84;1778986;78;21040;-77
2022/07/25 00:37:36;;;;;;;4.03;1.80;;;;;;;14.19;64.87;100767.61;1732478;80;21096;-77
2022/07/25 00:40:04;;;;;;;1.40;1.22;;;;;;;14.17;65.05;100764.66;1778281;78;21584;-77
2022/07/25 00:42:32;;;;;;;3.85;1.50;;;;;;;14.14;65.14;100773.55;1793744;79;21932;-77
2022/07/25 00:45:00;;;;;;;2.98;1.87;;;;;;;14.13;65.22;100766.55;1776646;79;20935;-76
2022/07/25 00:47:27;;;;;;;1.98;1.25;;;;;;;14.10;65.46;100770.65;1795875;79;21086;-77
2022/07/25 00:49:54;;;;;;;1.90;1.42;;;;;;;14.11;65.70;100766.26;1765729;79;21078;-77
2022/07/25 00:52:23;;;;;;;1.85;1.45;;;;;;;14.10;65.78;100768.02;1732580;80;21515;-77
2022/07/25 00:54:50;;;;;;;4.42;1.60;;;;;;;14.06;65.93;100762.03;1793657;78;21106;-77
2022/07/25 00:57:17;;;;;;;5.60;1.50;;;;;;;14.04;66.15;100763.88;1795925;79;21534;-77
2022/07/25 00:59:45;;;;;;;1.98;1.67;;;;;;;14.06;66.27;100762.50;1789383;78;21548;-76
2022/07/25 01:02:12;;;;;;;2.90;2.00;;;;;;;14.05;66.27;100760.34;1795775;78;21421;-77
2022/07/25 01:04:40;;;;;;;1.72;1.25;;;;;;;14.01;66.33;100756.58;1795624;79;21039;-76
2022/07/25 01:07:07;;;;;;;2.15;1.47;;;;;;;13.98;66.39;100759.36;1795573;79;21191;-76
2022/07/25 01:09:35;;;;;;;2.05;1.47;;;;;;;13.96;66.58;100751.52;1795550;78;20992;-76
2022/07/25 01:12:03;;;;;;;2.58;1.45;;;;;;;13.96;66.52;100754.14;1773495;78;21028;-76
2022/07/25 01:14:30;;;;;;;1.90;1.52;;;;;;;13.91;66.61;100752.64;1782324;78;21422;-76
2022/07/25 01:16:57;;;;;;;2.45;1.60;;;;;;;13.89;66.66;100756.69;1732195;80;21510;-77
2022/07/25 01:19:24;;;;;;;3.27;1.77;;;;;;;13.86;66.74;100759.46;1764566;78;21150;-76
2022/07/25 01:21:51;;;;;;;2.20;1.67;;;;;;;13.84;66.81;100751.61;1732256;81;20942;-76
2022/07/25 01:24:18;;;;;;;1.72;1.40;;;;;;;13.82;66.87;100749.97;1794783;78;20992;-76
2022/07/25 01:26:45;;;;;;;2.50;1.67;;;;;;;13.79;66.93;100746.16;1795684;78;21071;-76
2022/07/25 01:29:12;;;;;;;3.35;1.62;;;;;;;13.77;67.07;100751.95;1773723;79;21011;-76
2022/07/25 01:31:40;;;;;;;4.78;1.70;;;;;;;13.74;67.17;100752.94;1795607;78;21056;-76
2022/07/25 01:34:07;;;;;;;2.77;1.80;;;;;;;13.76;67.28;100755.05;1792650;78;21466;-76
2022/07/25 01:36:34;;;;;;;2.77;1.80;;;;;;;13.71;67.34;100753.08;1777180;79;21000;-77
2022/07/25 01:39:01;;;;;;;2.25;1.72;;;;;;;13.70;67.55;100746.58;1772889;78;21041;-77
2022/07/25 01:41:28;;;;;;;2.52;1.60;;;;;;;13.70;67.68;100743.48;1742635;80;21054;-76
2022/07/25 01:43:55;;;;;;;2.62;1.55;;;;;;;13.69;67.79;100739.14;1795989;79;21095;-76
2022/07/25 01:46:23;;;;;;;2.77;1.70;;;;;;;13.67;67.86;100744.08;1795470;79;21105;-76
2022/07/25 01:48:49;;;;;;;1.85;1.55;;;;;;;13.68;68.04;100741.83;1795817;79;20999;-77
2022/07/25 01:51:17;;;;;;;2.90;1.50;;;;;;;13.65;68.08;100738.02;1795574;79;21058;-76
2022/07/25 01:53:44;;;;;;;2.65;1.65;;;;;;;13.63;68.18;100735.44;1795829;79;20995;-76
2022/07/25 01:56:11;;;;;;;2.42;1.67;;;;;;;13.62;68.40;100729.79;1795578;79;21095;-77
2022/07/25 01:58:38;;;;;;;2.42;1.92;;;;;;;13.63;68.57;100733.27;1789232;79;21472;-77
2022/07/25 02:01:06;;;;;;;2.83;1.77;;;;;;;13.63;68.69;100730.64;1744099;81;21526;-76
2022/07/25 02:03:33;;;;;;;3.67;1.82;;;;;;;13.63;68.77;100728.00;1744831;80;21553;-76
2022/07/25 02:06:05;;;;;;;2.87;1.70;;;;;;;13.61;68.86;100727.63;1764913;80;21074;-76
2022/07/25 02:08:32;;;;;;;2.87;2.00;;;;;;;13.58;68.87;100723.81;1761819;79;21100;-76
2022/07/25 02:11:00;;;;;;;2.85;1.62;;;;;;;13.54;69.01;100727.48;1764156;80;20992;-76
2022/07/25 02:13:27;;;;;;;3.65;1.65;;;;;;;13.53;69.24;100725.78;1773410;80;21027;-76
2022/07/25 02:15:55;;;;;;;2.80;1.80;;;;;;;13.56;69.44;100726.12;1773738;80;21679;-76
2022/07/25 02:18:22;;;;;;;5.97;2.20;;;;;;;13.55;69.48;100723.06;1773492;80;20983;-77
2022/07/25 02:20:49;;;;;;;2.37;1.70;;;;;;;13.51;69.43;100722.36;1751860;80;21223;-76
2022/07/25 02:23:16;;;;;;;2.33;1.45;;;;;;;13.48;69.35;100718.55;1773277;80;21039;-77
2022/07/25 02:25:43;;;;;;;2.10;1.62;;;;;;;13.44;69.61;100716.98;1771215;80;21039;-77
2022/07/25 02:28:10;;;;;;;3.55;1.72;;;;;;;13.44;69.91;100714.79;1751137;81;21084;-76
2022/07/25 02:30:38;;;;;;;1.70;1.60;;;;;;;13.45;69.91;100712.10;1766565;80;21000;-76
2022/07/25 02:33:05;;;;;;;2.40;1.70;;;;;;;13.42;70.06;100712.23;1773480;80;21163;-77
2022/07/25 02:35:32;;;;;;;2.47;2.17;;;;;;;13.44;70.02;100710.41;1773570;80;21421;-76
2022/07/25 02:38:00;;;;;;;8.90;1.90;;;;;;;13.40;70.05;100710.12;1773349;80;21502;-77
2022/07/25 02:40:27;;;;;;;2.27;1.98;;;;;;;13.39;70.26;100713.69;1764389;80;20943;-77
2022/07/25 02:42:54;;;;;;;3.05;1.70;;;;;;;13.38;70.28;100711.53;1772221;80;21506;-76
2022/07/25 02:45:21;;;;;;;4.12;1.82;;;;;;;13.36;70.37;100709.41;1765662;79;21063;-76
2022/07/25 02:47:49;;;;;;;2.12;1.77;;;;;;;13.34;70.31;100708.61;1749250;80;21608;-77
2022/07/25 02:50:16;;;;;;;3.90;2.05;;;;;;;13.31;70.46;100706.12;1766804;80;21445;-77
2022/07/25 02:52:43;;;;;;;3.10;2.22;;;;;;;13.31;70.64;100706.12;1748310;80;21004;-77
2022/07/25 02:55:12;;;;;;;4.45;1.75;;;;;;;13.30;70.78;100707.05;1767659;80;21039;-76
2022/07/25 02:57:39;;;;;;;3.75;1.55;;;;;;;13.29;70.79;100701.37;1768726;80;22152;-76
2022/07/25 03:00:07;;;;;;;2.65;1.90;;;;;;;13.28;70.79;100700.99;1760206;80;21002;-77
2022/07/25 03:02:34;;;;;;;2.45;2.02;;;;;;;13.24;70.93;100703.31;1753899;81;21061;-77
2022/07/25 03:05:11;;;;;;;3.37;1.80;;;;;;;13.26;71.00;100704.14;1740847;81;20986;-77
2022/07/25 03:07:39;;;;;;;1.77;1.65;;;;;;;13.25;71.15;100702.88;1746755;81;20996;-77
2022/07/25 03:10:08;;;;;;;3.33;1.95;;;;;;;13.25;71.22;100705.05;1769037;81;21099;-76
2022/07/25 03:12:36;;;;;;;2.87;2.00;;;;;;;13.25;71.27;100695.83;1768041;81;26000;-77
2022/07/25 03:15:07;;;;;;;3.30;2.00;;;;;;;13.25;71.45;100693.67;1767834;81;21030;-76
2022/07/25 03:17:33;;;;;;;;;;;;;;;13.27;71.56;100689.20;1772305;81;20984;-76
2022/07/25 03:20:00;;;;;;;3.05;1.80;;;;;;;13.28;71.86;100691.78;1761138;81;20860;-77
2022/07/25 03:22:28;;;;;;;2.90;2.08;;;;;;;13.27;71.53;100693.14;1764076;81;21104;-76
2022/07/25 03:24:55;;;;;;;3.22;2.25;;;;;;;13.24;71.69;100688.84;1762318;81;21044;-77
2022/07/25 03:27:22;;;;;;;4.17;2.00;;;;;;;13.27;71.80;100692.68;1752521;81;21480;-77
2022/07/25 03:29:49;;;;;;;2.85;2.10;;;;;;;13.29;71.83;100691.31;1768136;81;21007;-76
2022/07/25 03:32:16;;;;;;;2.92;2.22;;;;;;;13.30;71.93;100686.00;1768876;81;20995;-78
2022/07/25 03:34:43;;;;;;;2.83;2.22;;;;;;;13.33;72.15;100690.23;1768933;81;21086;-77
2022/07/25 03:37:10;;;;;;;3.52;1.98;;;;;;;13.36;72.17;100686.19;1767912;81;21850;-76
2022/07/25 03:39:37;;;;;;;6.42;2.02;;;;;;;13.40;72.31;100685.11;1768200;81;21493;-76
2022/07/25 03:42:05;;;;;;;2.60;2.02;;;;;;;13.43;72.36;100674.91;1761767;81;21017;-76
2022/07/25 03:44:32;;;;;;;3.08;2.35;;;;;;;13.47;72.52;100676.03;1763591;81;20998;-76
2022/07/25 03:46:59;;;;;;;2.77;2.45;;;;;;;13.51;72.53;100678.91;1768028;81;21130;-76
2022/07/25 03:49:26;;;;;;;3.27;2.02;;;;;;;13.54;72.56;100680.55;1768178;81;21445;-77
2022/07/25 03:51:53;;;;;;;4.15;1.65;;;;;;;13.58;72.76;100676.88;1767881;81;20954;-77
2022/07/25 03:54:20;;;;;;;3.83;2.00;;;;;;;13.64;72.67;100677.05;1768119;81;21706;-77
2022/07/25 03:56:50;;;;;;;3.15;2.58;;;;;;;13.66;72.62;100677.34;1754645;81;21045;-77
2022/07/25 03:59:20;;;;;;;3.08;2.22;;;;;;;13.70;72.79;100673.66;1759437;79;21111;-77
2022/07/25 04:01:48;;;;;;;;;;;;;;;13.77;72.79;100674.23;1769402;80;21546;-77
2022/07/25 04:04:18;;;;;;;3.30;2.40;;;;;;;13.81;73.08;100669.23;1749400;80;20216;-76
2022/07/25 04:06:45;;;;;;;2.98;2.10;;;;;;;13.87;72.91;100664.98;1765969;80;21085;-76
2022/07/25 04:09:14;;;;;;;2.98;2.12;;;;;;;13.91;72.85;100670.95;1782665;80;21047;-76
2022/07/25 04:11:42;;;;;;;2.20;1.90;;;;;;;13.97;73.07;100670.23;1745439;81;21975;-76
2022/07/25 04:14:09;;;;;;;3.15;2.30;;;;;;;14.06;73.08;100672.89;1735647;81;21037;-76
2022/07/25 04:16:36;;;;;;;2.42;2.08;;;;;;;14.12;73.10;100671.75;1744750;81;21027;-76
2022/07/25 04:19:04;;;;;;;4.70;2.40;;;;;;;14.18;73.07;100668.34;1761745;81;21054;-76
2022/07/25 04:21:31;;;;;;;2.72;2.00;;;;;;;14.27;73.33;100665.72;1752685;81;21058;-76
2022/07/25 04:23:58;;;;;;;3.95;2.27;;;;;;;14.39;73.56;100666.47;1740749;81;21091;-76
2022/07/25 04:26:25;;;;;;;6.15;2.40;;;;;;;14.53;73.78;100656.59;1760194;81;21043;-76
2022/07/25 04:28:52;;;;;;;4.95;2.52;;;;;;;14.65;73.80;100658.61;1740595;81;21032;-77
2022/07/25 04:31:19;;;;;;;3.42;2.20;;;;;;;14.80;73.87;100653.05;1742673;81;21464;-76
2022/07/25 04:33:46;;;;;;;5.35;2.37;;;;;;;14.96;73.85;100658.38;1746350;81;21107;-76
2022/07/25 04:36:13;;;;;;;5.17;2.10;;;;;;;15.11;73.62;100647.52;1751524;81;21107;-77
2022/07/25 04:38:40;;;;;;;2.75;2.10;;;;;;;15.31;73.69;100646.47;1752990;81;21026;-77
2022/07/25 04:41:07;;;;;;;4.03;2.27;;;;;;;15.47;73.65;100642.08;1737382;81;21061;-77
2022/07/25 04:43:35;;;;;;;2.60;2.17;;;;;;;15.60;73.16;100638.29;1735047;81;21029;-76
2022/07/25 04:46:02;;;;;;;4.20;2.30;;;;;;;15.73;73.13;100636.73;1748645;81;21015;-77
2022/07/25 04:48:30;;;;;;;3.27;2.12;;;;;;;15.90;72.60;100635.80;1753040;81;21089;-77
2022/07/25 04:50:57;;;;;;;3.15;2.05;;;;;;;16.05;72.34;100629.66;1740151;81;21033;-76
2022/07/25 04:53:24;;;;;;;3.08;2.12;;;;;;;16.20;71.81;100632.38;1743698;81;21523;-77
2022/07/25 04:55:51;;;;;;;4.22;2.10;;;;;;;16.36;71.57;100624.43;1734647;81;21041;-76
2022/07/25 04:58:19;;;;;;;4.33;2.20;;;;;;;16.49;71.32;100624.95;1738657;81;21011;-77
2022/07/25 05:00:46;;;;;;;3.90;2.25;;;;;;;16.62;70.91;100627.72;1743016;81;21094;-76
2022/07/25 05:03:13;;;;;;;2.47;2.02;;;;;;;16.75;70.51;100628.34;1749705;81;21090;-77
2022/07/25 05:05:40;;;;;;;10.60;2.12;;;;;;;16.87;70.06;100621.86;1752748;81;21066;-76
2022/07/25 05:08:07;;;;;;;4.97;2.15;;;;;;;16.97;69.71;100612.91;1759786;81;21521;-76
2022/07/25 05:10:35;;;;;;;3.58;2.08;;;;;;;17.08;69.53;100613.11;1771006;80;21099;-79
2022/07/25 05:13:03;;;;;;;3.05;1.90;;;;;;;17.17;69.02;100609.04;1747658;81;21173;-85
2022/07/25 05:15:29;;;;;;;5.35;2.00;;;;;;;17.27;68.62;100613.31;1781558;80;21057;-77
2022/07/25 05:17:56;;;;;;;3.62;2.20;;;;;;;17.37;68.30;100609.98;1764124;80;21466;-87
2022/07/25 05:20:26;;;;;;;3.75;2.00;;;;;;;17.47;67.66;100606.30;1750758;81;21589;-83
2022/07/25 05:22:53;;;;;;;3.58;2.08;;;;;;;17.52;67.24;100601.56;1757829;81;21528;-88
2022/07/25 05:25:20;;;;;;;3.17;2.00;;;;;;;17.66;66.95;100606.00;1755706;81;21111;-90
2022/07/25 05:27:47;;;;;;;3.85;2.50;;;;;;;17.74;66.52;100601.55;1755807;80;21063;-82
2022/07/25 05:30:17;;;;;;;3.90;2.27;;;;;;;17.84;66.39;100603.99;1757211;81;22028;-85
2022/07/25 05:32:45;;;;;;;2.50;2.12;;;;;;;17.93;66.12;100598.12;1753417;81;21051;-87
2022/07/25 05:35:14;;;;;;;3.70;2.17;;;;;;;18.02;65.71;100600.16;1758063;81;21052;-91
2022/07/25 05:37:41;;;;;;;2.95;2.08;;;;;;;18.11;65.54;100595.21;1757012;81;21119;-83
2022/07/25 05:40:11;;;;;;;3.07;2.10;;;;;;;18.20;64.99;100595.44;1752063;80;21031;-86
2022/07/25 05:42:39;;;;;;;4.28;2.20;;;;;;;18.29;64.74;100594.02;1755890;81;21066;-83
2022/07/25 05:45:07;;;;;;;3.47;2.00;;;;;;;18.38;64.49;100589.41;1748379;81;21091;-84
2022/07/25 05:47:34;;;;;;;4.83;1.85;;;;;;;18.47;63.93;100584.81;1755267;81;21464;-87
2022/07/25 05:50:01;;;;;;;6.05;2.20;;;;;;;18.56;63.54;100587.31;1733740;81;22120;-84
2022/07/25 05:52:28;;;;;;;5.37;2.37;;;;;;;18.65;63.18;100591.15;1751968;81;21076;-86
2022/07/25 05:54:56;;;;;;;5.10;2.50;;;;;;;18.74;62.80;100581.28;1756682;81;20979;-85
2022/07/25 05:57:22;;;;;;;3.70;2.10;;;;;;;18.80;62.23;100583.52;1755603;81;20948;-85
2022/07/25 05:59:53;;;;;;;3.17;2.25;;;;;;;18.86;61.91;100579.59;1752516;81;21071;-85
2022/07/25 06:02:20;;;;;;;4.70;2.33;;;;;;;18.92;61.61;100577.34;1746679;82;21285;-86
2022/07/25 06:04:47;;;;;;;5.35;2.02;;;;;;;19.00;61.33;100571.51;1746228;82;21704;-84
2022/07/25 06:07:14;;;;;;;3.40;2.10;;;;;;;19.06;61.12;100569.75;1747053;82;21454;-84
2022/07/25 06:09:41;;;;;;;2.42;2.08;;;;;;;19.13;60.91;100565.72;1746897;82;21048;-85
2022/07/25 06:12:08;;;;;;;6.08;2.25;;;;;;;19.20;60.83;100563.47;1747389;82;21042;-88
2022/07/25 06:14:37;;;;;;;4.33;2.08;;;;;;;19.26;60.55;100568.38;1747313;82;21668;-86
2022/07/25 06:17:04;;;;;;;4.83;2.53;;;;;;;19.33;60.18;100568.77;1746731;82;20971;-84
2022/07/25 06:19:31;;;;;;;3.92;2.25;;;;;;;19.39;60.03;100565.19;1747708;82;21696;-83
2022/07/25 06:21:58;;;;;;;2.60;2.00;;;;;;;19.45;59.87;100565.23;1747016;82;21126;-81
2022/07/25 06:24:25;;;;;;;4.22;2.27;;;;;;;19.51;59.64;100557.30;1747500;82;21731;-81
2022/07/25 06:26:52;;;;;;;3.52;2.30;;;;;;;19.56;59.41;100553.83;1745667;82;21907;-81
2022/07/25 06:29:19;;;;;;;4.53;2.40;;;;;;;19.61;59.35;100550.36;1747548;82;20948;-80
2022/07/25 06:31:46;;;;;;;3.83;1.95;;;;;;;19.68;59.30;100552.98;1746926;82;22179;-80
2022/07/25 06:34:13;;;;;;;3.65;1.98;;;;;;;19.75;59.31;100550.72;1747503;82;21035;-79
2022/07/25 06:36:40;;;;;;;4.00;2.22;;;;;;;19.81;59.11;100547.15;1747411;82;21059;-81
2022/07/25 06:39:07;;;;;;;3.95;2.12;;;;;;;19.89;59.16;100545.72;1747393;82;21194;-80
2022/07/25 06:41:36;;;;;;;3.05;2.05;;;;;;;19.96;58.84;100544.31;1746978;82;21083;-83
2022/07/25 06:44:05;;;;;;;2.20;2.00;;;;;;;20.02;58.81;100537.20;1747354;82;21043;-80
2022/07/25 06:46:32;;;;;;;3.73;2.00;;;;;;;20.09;58.76;100531.77;1746817;82;21465;-81
2022/07/25 06:48:59;;;;;;;5.40;2.37;;;;;;;20.19;58.60;100528.80;1747141;82;21067;-80
2022/07/25 06:51:26;;;;;;;2.67;1.90;;;;;;;20.28;58.37;100528.13;1746987;81;21085;-79
2022/07/25 06:53:53;;;;;;;3.10;1.92;;;;;;;20.38;58.18;100522.09;1746678;81;21036;-80
2022/07/25 06:56:21;;;;;;;4.87;1.87;;;;;;;20.48;58.07;100519.11;1747268;82;21035;-81
2022/07/25 06:58:48;;;;;;;3.95;1.87;;;;;;;20.56;57.94;100515.86;1747061;82;21439;-80
2022/07/25 07:01:15;;;;;;;3.27;2.00;;;;;;;20.66;57.88;100516.37;1749350;81;21698;-80
2022/07/25 07:03:42;;;;;;;3.87;1.82;;;;;;;20.77;57.83;100504.88;1750082;81;21112;-80
2022/07/25 07:06:09;;;;;;;6.20;2.10;;;;;;;20.94;57.91;100502.23;1755774;81;21103;-79
2022/07/25 07:08:36;;;;;;;5.37;1.90;;;;;;;21.09;57.23;100494.36;1751506;81;21575;-81
2022/07/25 07:11:06;;;;;;;2.30;1.75;;;;;;;21.26;56.77;100498.83;1757907;80;21018;-93
2022/07/25 07:13:34;;;;;;;4.10;1.75;;;;;;;21.38;56.49;100496.03;1756365;81;25355;-84
2022/07/25 07:16:04;;;;;;;6.97;1.55;;;;;;;21.59;56.18;100493.46;1759516;78;21046;-92
2022/07/25 07:18:31;;;;;;;2.80;1.65;;;;;;;21.77;55.66;100492.42;1765916;81;21044;-87
2022/07/25 07:20:58;;;;;;;5.15;1.57;;;;;;;21.94;55.15;100493.69;1762894;80;22080;-82
2022/07/25 07:23:25;;;;;;;3.65;1.60;;;;;;;22.15;55.02;100483.54;1764297;78;21043;-77
2022/07/25 07:25:52;;;;;;;2.55;1.60;;;;;;;22.33;54.43;100479.81;1765415;81;21586;-86
2022/07/25 07:28:20;;;;;;;6.00;1.75;;;;;;;22.47;54.16;100477.68;1763292;81;39096;-87
2022/07/25 07:30:47;;;;;;;2.58;1.50;;;;;;;22.67;53.55;100481.80;1765763;78;21042;-91
2022/07/25 07:33:14;;;;;;;2.83;1.40;;;;;;;22.83;52.84;100475.44;1763860;79;21031;-84
2022/07/25 07:35:44;;;;;;;2.30;1.30;;;;;;;22.98;52.67;100473.80;1764193;78;21059;-88
2022/07/25 07:38:11;;;;;;;2.02;1.20;;;;;;;23.15;52.09;100475.83;1764694;78;22212;-92
2022/07/25 07:40:38;;;;;;;2.83;1.30;;;;;;;23.37;51.74;100474.26;1763991;78;21166;-86
2022/07/25 07:43:05;;;;;;;3.55;1.30;;;;;;;23.55;51.32;100473.58;1765179;81;21051;-81
2022/07/25 07:45:32;;;;;;;2.62;1.20;;;;;;;23.67;50.45;100468.47;1763456;78;21079;-86
2022/07/25 07:47:59;;;;;;;8.43;1.32;;;;;;;23.79;50.12;100467.86;1765767;78;21042;-87
2022/07/25 07:50:27;;;;;;;2.67;1.10;;;;;;;24.02;50.25;100466.58;1763126;80;21278;-87
2022/07/25 07:52:55;;;;;;;2.70;1.10;;;;;;;24.22;49.34;100462.06;1766161;78;21671;-80
2022/07/25 07:58:14;;;;;;;2.08;1.35;;;;;;;24.63;48.40;100457.31;1763804;81;21038;-82
2022/07/25 08:00:44;;;;;;;7.90;2.00;;;;;;;24.78;47.88;100444.81;1768076;78;21028;-76
2022/07/25 08:03:14;;;;;;;7.12;1.35;;;;;;;24.87;47.64;100438.05;1767730;78;21066;-76
2022/07/25 08:05:44;;;;;;;1.70;1.10;;;;;;;24.99;47.06;100433.32;1769259;78;21088;-76
2022/07/25 08:08:13;;;;;;;3.27;1.20;;;;;;;25.13;46.44;100439.52;1766728;78;21050;-76
2022/07/25 08:10:45;;;;;;;;;;;;;;;25.22;45.88;100431.59;1771254;78;21497;-76
2022/07/25 08:13:27;;;;;;;4.47;0.90;;;;;;;25.30;45.31;100439.27;1768224;81;20165;-76
2022/07/25 08:15:58;;;;;;;1.45;1.00;;;;;;;25.42;45.01;100435.86;1769059;81;21100;-76
2022/07/25 08:18:31;;;;;;;5.83;1.30;;;;;;;25.46;44.43;100439.07;1768812;81;22350;-76
2022/07/25 08:21:01;;;;;;;2.80;0.90;;;;;;;25.52;43.75;100442.48;1769759;81;21523;-76
2022/07/25 08:23:30;;;;;;;1.42;1.00;;;;;;;25.57;43.50;100434.82;1768104;81;21042;-76
2022/07/25 08:25:58;;;;;;;2.42;1.35;;;;;;;25.60;43.34;100427.30;1768505;80;21049;-75
2022/07/25 08:28:25;;;;;;;1.27;1.12;;;;;;;25.66;42.93;100425.84;1768154;81;21070;-75
2022/07/25 08:30:52;;;;;;;2.52;0.90;;;;;;;25.80;42.91;100419.95;1768299;80;21164;-76
2022/07/25 08:33:19;;;;;;;1.90;1.00;;;;;;;25.89;42.75;100412.83;1768044;78;21058;-76
2022/07/25 08:35:50;;;;;;;2.87;1.20;;;;;;;26.08;42.59;100412.28;1768455;78;21015;-79
2022/07/25 08:38:18;;;;;;;1.82;0.98;;;;;;;26.14;41.95;100414.36;1768172;81;21037;-76
2022/07/25 08:40:46;;;;;;;2.22;1.12;;;;;;;26.19;41.76;100414.23;1764851;78;21593;-75
2022/07/25 08:43:15;;;;;;;1.50;1.10;;;;;;;26.26;41.56;100417.11;1762615;81;21547;-75
2022/07/25 08:45:49;;;;;;;2.30;1.22;;;;;;;26.34;41.20;100422.55;1756312;81;20988;-76
2022/07/25 08:48:19;;;;;;;4.78;1.20;;;;;;;26.40;40.99;100413.84;1739985;80;21421;-76
2022/07/25 08:50:47;;;;;;;2.25;1.15;;;;;;;26.49;40.54;100410.69;1751839;80;21015;-76
2022/07/25 08:53:17;;;;;;;1.50;1.00;;;;;;;26.61;40.38;100403.25;1750850;81;21292;-76
2022/07/25 08:55:46;;;;;;;4.25;1.07;;;;;;;26.73;40.32;100402.45;1770191;80;22415;-76
2022/07/25 08:58:15;;;;;;;2.62;1.10;;;;;;;26.97;40.35;100401.72;1735253;81;21549;-76
2022/07/25 09:00:44;;;;;;;2.45;1.00;;;;;;;27.13;39.93;100406.64;1781190;80;21076;-77
2022/07/25 09:03:12;;;;;;;2.85;1.15;;;;;;;27.14;39.39;100400.23;1762780;80;21043;-76
2022/07/25 09:05:40;;;;;;;1.90;1.10;;;;;;;27.20;39.27;100397.42;1740133;81;21038;-76
2022/07/25 09:08:16;;;;;;;2.67;1.40;;;;;;;27.28;39.24;100386.67;1783648;80;21118;-76
2022/07/25 09:10:50;;;;;;;1.98;1.20;;;;;;;27.48;39.16;100399.83;1761090;80;21086;-76
2022/07/25 09:13:20;;;;;;;4.42;1.22;;;;;;;27.65;38.63;100396.64;1743462;81;21070;-76
2022/07/25 09:15:51;;;;;;;3.62;1.20;;;;;;;27.71;38.31;100395.48;1761217;80;21078;-76
2022/07/25 09:18:24;;;;;;;2.27;1.02;;;;;;;27.76;37.97;100383.67;1742490;81;21019;-76
2022/07/25 09:20:58;;;;;;;1.75;1.12;;;;;;;27.89;37.86;100389.10;1779693;80;21126;-76
2022/07/25 09:23:37;;;;;;;1.25;1.10;;;;;;;28.04;37.52;100390.08;1786639;80;21042;-75
2022/07/25 09:26:08;;;;;;;4.00;1.17;;;;;;;28.09;37.49;100386.88;1760493;80;21043;-76
2022/07/25 09:28:52;;;;;;;1.00;0.90;;;;;;;28.23;37.31;100387.01;1731335;81;20970;-76
2022/07/25 09:31:19;;;;;;;2.35;1.30;;;;;;;28.32;36.86;100377.56;1741083;81;21571;-77
2022/07/25 09:34:00;;;;;;;1.45;1.12;;;;;;;28.40;36.61;100374.84;1751238;81;21113;-76
2022/07/25 09:36:23;;;;;;;3.77;1.27;;;;;;;28.50;36.65;100371.98;1757675;81;21027;-81
2022/07/25 09:38:59;;;;;;;1.92;1.25;;;;;;;28.71;36.51;100374.08;1769219;80;21018;-76
2022/07/25 09:41:39;;;;;;;2.90;1.47;;;;;;;28.82;36.26;100369.16;1740663;81;21040;-78
2022/07/25 09:44:18;;;;;;;3.22;1.20;;;;;;;28.99;36.32;100377.14;1755649;81;21102;-76
2022/07/25 09:46:50;;;;;;;3.17;1.07;;;;;;;29.09;35.80;100372.40;1756771;80;21101;-77
2022/07/25 09:49:18;;;;;;;2.00;1.10;;;;;;;29.05;35.33;100375.13;1745839;81;21512;-77
2022/07/25 09:51:46;;;;;;;1.27;1.17;;;;;;;29.03;35.29;100372.59;1753635;81;21131;-77
2022/07/25 09:54:14;;;;;;;2.80;1.30;;;;;;;29.16;35.64;100364.45;1757215;81;21126;-78
2022/07/25 09:56:42;;;;;;;4.83;1.40;;;;;;;29.38;35.42;100364.09;1757442;81;21102;-77
2022/07/25 09:59:09;;;;;;;4.25;1.50;;;;;;;29.56;35.34;100356.02;1743454;80;21281;-81
2022/07/25 10:01:41;;;;;;;3.58;1.27;;;;;;;29.77;35.21;100349.97;1761273;79;20986;-80
2022/07/25 10:04:22;;;;;;;3.50;2.62;;;;;;;29.92;34.76;100355.39;1746842;82;21013;-75
2022/07/25 10:07:05;;;;;;;7.37;3.98;;;;;;;29.91;34.33;100348.32;1760294;80;21561;-74
2022/07/25 10:09:32;;;;;;;4.87;4.05;;;;;;;29.99;34.36;100348.23;1716463;82;21495;-80
2022/07/25 10:12:10;;;;;;;2.98;2.62;;;;;;;30.15;34.19;100338.27;1719564;82;21510;-79
2022/07/25 10:14:39;;;;;;;9.07;2.00;;;;;;;30.27;33.85;100335.98;1736344;82;21522;-83
2022/07/25 10:17:06;;;;;;;2.47;2.02;;;;;;;30.32;33.78;100327.64;1737849;82;21095;-78
2022/07/25 10:19:47;;;;;;;5.58;1.45;;;;;;;30.53;33.60;100334.14;1747654;82;21560;-81
2022/07/25 10:22:15;;;;;;;4.60;1.55;;;;;;;30.71;33.35;100330.53;1738159;82;21056;-83
2022/07/25 10:24:48;;;;;;;4.62;1.50;;;;;;;31.00;33.34;100320.15;1737335;82;21055;-83
2022/07/25 10:27:22;;;;;;;2.60;1.87;;;;;;;31.24;32.78;100321.65;1737477;82;21056;-82
2022/07/25 10:29:53;;;;;;;2.25;1.50;;;;;;;31.38;32.27;100340.77;1733521;82;21029;-87
2022/07/25 10:32:23;;;;;;;4.78;1.70;;;;;;;31.59;32.21;100323.64;1737500;82;21522;-79
2022/07/25 10:34:54;;;;;;;4.28;1.70;;;;;;;31.84;32.01;100307.25;1738038;82;21080;-80
2022/07/25 10:37:27;;;;;;;4.45;1.90;;;;;;;32.15;31.69;100317.72;1738070;82;21117;-82
2022/07/25 10:39:55;;;;;;;3.50;1.77;;;;;;;32.35;31.20;100296.12;1733818;82;21021;-76
2022/07/25 10:42:24;;;;;;;1.98;1.37;;;;;;;32.58;30.88;100297.17;1738152;82;21068;-78
2022/07/25 10:44:56;;;;;;;1.25;1.12;;;;;;;32.81;30.60;100292.77;1720425;82;21068;-80
2022/07/25 10:47:26;;;;;;;3.22;1.15;;;;;;;33.07;30.42;100296.09;1738047;82;21068;-81
2022/07/25 10:50:02;;;;;;;1.90;1.10;;;;;;;33.35;30.23;100282.84;1737743;82;21127;-78
2022/07/25 10:52:30;;;;;;;2.50;1.10;;;;;;;33.63;30.10;100277.73;1737706;82;21534;-80
2022/07/25 10:55:00;;;;;;;1.12;1.02;;;;;;;33.90;29.70;100268.48;1737167;82;20976;-79
2022/07/25 10:57:28;;;;;;;2.25;1.20;;;;;;;34.10;29.52;100263.55;1738221;82;21041;-85
2022/07/25 11:00:07;;;;;;;4.08;1.10;;;;;;;34.30;28.65;100258.85;1731313;82;21060;-79
2022/07/25 11:02:34;;;;;;;1.05;0.98;;;;;;;34.33;28.14;100259.78;1755161;81;21099;-77
2022/07/25 11:05:03;;;;;;;1.70;1.07;;;;;;;34.55;27.98;100259.47;1767967;80;21003;-83
2022/07/25 11:07:34;;;;;;;3.27;0.93;;;;;;;34.79;27.60;100255.19;1768303;81;26571;-81
2022/07/25 11:10:03;;;;;;;4.00;0.80;;;;;;;34.88;27.13;100255.75;1748246;80;21552;-79
2022/07/25 11:12:31;;;;;;;3.70;1.00;;;;;;;34.93;27.16;100255.40;1754015;81;21079;-79
2022/07/25 11:15:04;;;;;;;1.22;0.90;;;;;;;35.05;26.95;100249.53;1750264;81;21934;-85
2022/07/25 11:17:33;;;;;;;2.90;1.12;;;;;;;35.14;27.07;100248.76;1760422;80;20974;-75
2022/07/25 11:20:05;;;;;;;2.42;1.22;;;;;;;35.25;26.68;100249.43;1731412;81;20997;-76
2022/07/25 11:22:34;;;;;;;2.12;1.20;;;;;;;35.24;26.30;100236.84;1750559;81;21015;-77
2022/07/25 11:25:04;;;;;;;1.50;0.90;;;;;;;35.34;26.26;100225.98;1771093;80;21102;-77
2022/07/25 11:27:33;;;;;;;6.05;1.10;;;;;;;35.50;25.82;100224.02;1748700;81;21915;-75
2022/07/25 11:30:16;;;;;;;2.30;1.00;;;;;;;35.52;25.40;100224.11;1772361;80;20995;-76
2022/07/25 11:32:52;;;;;;;1.32;1.20;;;;;;;35.45;25.14;100211.62;1746358;81;21048;-80
2022/07/25 11:35:30;;;;;;;1.25;1.07;;;;;;;35.46;25.17;100211.38;1743172;81;21579;-78